SAWH/USH METAR and TAF weather

Enter ICAO airport designator
Station Type Date Time Source
SAWH METAR 2020/09/22 05:00 UTC NOAA

SAWH 220500Z 00000KT 9999 SCT048 BKN100 04/01 Q0992


Station Type Date Time Source
SAWH Decoded METAR 2020/09/22 05:00 UTC NOAA

Ushuaia Aerodrome, Argentina (SAWH) 54-48S 068-19W 14M
Sep 22, 2020 - 01:00 AM EDT / 2020.09.22 0500 UTC
Wind: Calm:0
Visibility: greater than 7 mile(s):0
Sky conditions: mostly cloudy
Temperature: 39 F (4 C)
Dew Point: 33 F (1 C)
Relative Humidity: 80%
Pressure (altimeter): 29.29 in. Hg (0992 hPa)
ob: SAWH 220500Z 00000KT 9999 SCT048 BKN100 04/01 Q0992
cycle: 5

Station Type Date Time Source
SAWH TAF 2020/09/22 00:06 UTC NOAA

TAF SAWH 212300Z 2200/2224 20005KT CAVOK TX09/2219Z TN00/2210Z
BECMG 2201/2203 34005KT 9999 BRDZ SCT035
BECMG 2210/2212 29010KT 9000 RABR BKN010 OVC045
BECMG 2219/2221 34005KT 9999 VCDZ SCT030

Example: see airport list